createdAt,value
2023-05-14T00:00:24.521Z,19.50
2023-05-14T00:03:11.399Z,21.00
2023-05-14T00:05:38.204Z,18.90
2023-05-14T00:08:05.587Z,19.00
2023-05-14T00:10:32.362Z,18.20
2023-05-14T00:12:58.987Z,22.30
2023-05-14T00:15:25.666Z,19.60
2023-05-14T00:17:52.396Z,18.40
2023-05-14T00:20:19.075Z,19.80
2023-05-14T00:22:45.526Z,18.30
2023-05-14T00:25:12.245Z,16.60
2023-05-14T00:27:38.780Z,18.30
2023-05-14T00:30:08.504Z,19.30
2023-05-14T00:32:35.219Z,18.30
2023-05-14T00:35:03.724Z,19.00
2023-05-14T00:37:30.407Z,19.70
2023-05-14T00:39:57.737Z,19.70
2023-05-14T00:42:24.361Z,16.90
2023-05-14T00:44:50.846Z,17.50
2023-05-14T00:47:17.619Z,18.50
2023-05-14T00:49:44.979Z,17.00
2023-05-14T00:52:11.731Z,21.00
2023-05-14T00:54:38.490Z,20.80
2023-05-14T00:57:06.238Z,18.90
2023-05-14T00:59:33.085Z,19.30
2023-05-14T01:01:59.762Z,19.60
2023-05-14T01:04:26.548Z,19.10
2023-05-14T01:07:16.849Z,20.20
2023-05-14T01:09:54.318Z,19.20
2023-05-14T01:12:37.780Z,19.80
2023-05-14T01:15:10.900Z,18.60
2023-05-14T01:17:42.954Z,19.40
2023-05-14T01:20:10.152Z,19.50
2023-05-14T01:22:37.309Z,18.70
2023-05-14T01:25:05.384Z,17.40
2023-05-14T01:27:47.108Z,16.80
2023-05-14T01:30:30.495Z,20.30
2023-05-14T01:32:59.926Z,16.70
2023-05-14T01:35:28.323Z,17.70
2023-05-14T01:37:56.870Z,17.80
2023-05-14T01:40:24.938Z,18.50
2023-05-14T01:42:52.852Z,16.30
2023-05-14T01:45:20.536Z,17.90
2023-05-14T01:47:47.482Z,17.50
2023-05-14T01:50:13.981Z,16.80
2023-05-14T01:52:40.835Z,18.30
2023-05-14T01:55:08.015Z,16.60
2023-05-14T01:57:34.574Z,15.40
2023-05-14T02:00:01.474Z,16.50
2023-05-14T02:02:29.118Z,16.00
2023-05-14T02:04:55.702Z,18.10
2023-05-14T02:07:22.284Z,16.00
2023-05-14T02:09:48.919Z,17.30
2023-05-14T02:12:15.373Z,18.10
2023-05-14T02:14:42.007Z,15.70
2023-05-14T02:17:08.844Z,15.90
2023-05-14T02:19:35.438Z,16.20
2023-05-14T02:22:01.994Z,15.50
2023-05-14T02:24:28.641Z,15.90
2023-05-14T02:26:55.166Z,15.90
2023-05-14T02:29:22.816Z,17.50
2023-05-14T02:31:49.844Z,15.40
2023-05-14T02:34:16.641Z,18.10
2023-05-14T02:36:43.349Z,16.80
2023-05-14T02:39:10.135Z,15.70
2023-05-14T02:41:37.055Z,14.80
2023-05-14T02:44:03.705Z,16.50
2023-05-14T02:46:31.685Z,14.70
2023-05-14T02:48:58.380Z,15.80
2023-05-14T02:51:25.907Z,17.00
2023-05-14T02:53:55.339Z,15.70
2023-05-14T02:56:21.982Z,19.80
2023-05-14T02:58:48.477Z,15.00
2023-05-14T03:01:15.153Z,17.80
2023-05-14T03:03:42.273Z,17.70
2023-05-14T03:06:09.187Z,16.70
2023-05-14T03:08:35.970Z,16.90
2023-05-14T03:11:02.568Z,16.30
2023-05-14T03:13:29.150Z,15.90
2023-05-14T03:15:56.405Z,14.30
2023-05-14T03:18:23.154Z,18.10
2023-05-14T03:20:50.045Z,15.00
2023-05-14T03:23:16.606Z,17.40
2023-05-14T03:25:43.058Z,16.40
2023-05-14T03:28:09.744Z,15.60
2023-05-14T03:30:36.369Z,19.70
2023-05-14T03:33:03.612Z,15.70
2023-05-14T03:35:30.890Z,15.10
2023-05-14T03:37:58.636Z,16.00
2023-05-14T03:40:25.755Z,16.40
2023-05-14T03:42:52.503Z,16.50
2023-05-14T03:45:19.460Z,15.80
2023-05-14T03:47:45.942Z,16.20
2023-05-14T03:50:12.399Z,17.90
2023-05-14T03:52:39.898Z,14.50
2023-05-14T03:55:06.796Z,15.20
2023-05-14T03:57:33.332Z,16.30
2023-05-14T03:59:59.882Z,17.70
2023-05-14T04:02:26.490Z,15.60
2023-05-14T04:04:54.098Z,18.00
2023-05-14T04:07:20.925Z,19.00
2023-05-14T04:09:47.553Z,19.60
2023-05-14T04:12:14.055Z,17.10
2023-05-14T04:14:40.884Z,19.20
2023-05-14T04:17:07.579Z,18.20
2023-05-14T04:19:34.330Z,17.50
2023-05-14T04:22:00.960Z,18.00
2023-05-14T04:24:27.529Z,17.40
2023-05-14T04:26:54.251Z,19.10
2023-05-14T04:29:20.695Z,16.50
2023-05-14T04:31:49.004Z,16.10
2023-05-14T04:34:15.615Z,17.40
2023-05-14T04:36:42.077Z,17.70
2023-05-14T04:39:14.758Z,18.40
2023-05-14T04:41:42.098Z,19.90
2023-05-14T04:44:08.568Z,17.20
2023-05-14T04:46:35.333Z,17.80
2023-05-14T04:49:02.028Z,17.80
2023-05-14T04:51:28.499Z,17.20
2023-05-14T04:53:54.927Z,20.80
2023-05-14T04:56:21.608Z,18.40
2023-05-14T04:58:56.173Z,16.80
2023-05-14T05:01:23.202Z,23.20
2023-05-14T05:03:50.272Z,19.40
2023-05-14T05:06:16.810Z,21.10
2023-05-14T05:08:43.496Z,18.80
2023-05-14T05:11:10.023Z,18.10
2023-05-14T05:13:36.504Z,16.50
2023-05-14T05:16:03.161Z,15.00
2023-05-14T05:18:29.689Z,16.80
2023-05-14T05:20:56.309Z,17.70
2023-05-14T05:23:23.103Z,17.90
2023-05-14T05:25:50.453Z,17.80
2023-05-14T05:28:20.031Z,18.20
2023-05-14T05:30:46.657Z,15.80
2023-05-14T05:33:13.470Z,17.80
2023-05-14T05:35:40.226Z,19.70
2023-05-14T05:38:06.897Z,17.80
2023-05-14T05:40:33.389Z,16.40
2023-05-14T05:43:00.099Z,16.50
2023-05-14T05:45:26.677Z,18.00
2023-05-14T05:47:53.191Z,14.00
2023-05-14T05:50:20.233Z,16.80
2023-05-14T05:52:46.935Z,16.80
2023-05-14T05:55:13.407Z,14.10
2023-05-14T05:57:39.946Z,15.60
2023-05-14T06:00:12.953Z,15.70
2023-05-14T06:02:41.021Z,17.50
2023-05-14T06:05:09.166Z,14.20
2023-05-14T06:07:35.872Z,15.50
2023-05-14T06:10:02.896Z,16.50
2023-05-14T06:12:29.524Z,18.30
2023-05-14T06:14:57.267Z,13.70
2023-05-14T06:17:24.840Z,15.60
2023-05-14T06:19:51.819Z,13.60
2023-05-14T06:22:19.148Z,15.40
2023-05-14T06:24:45.871Z,14.80
2023-05-14T06:27:12.437Z,13.30
2023-05-14T06:29:39.132Z,15.70
2023-05-14T06:32:06.205Z,16.40
2023-05-14T06:34:33.054Z,11.90
2023-05-14T06:37:02.150Z,12.10
2023-05-14T06:39:28.724Z,11.70
2023-05-14T06:41:55.200Z,11.60
2023-05-14T06:44:23.292Z,13.00
2023-05-14T06:46:49.885Z,12.20
2023-05-14T06:49:16.472Z,11.70
2023-05-14T06:51:43.218Z,10.80
2023-05-14T06:54:09.844Z,10.10
2023-05-14T06:56:36.352Z,11.70
2023-05-14T06:59:02.885Z,11.70
2023-05-14T07:01:34.563Z,9.60
2023-05-14T07:04:01.178Z,10.90
2023-05-14T07:06:27.822Z,10.50
2023-05-14T07:08:54.579Z,11.20
2023-05-14T07:11:21.598Z,9.60
2023-05-14T07:13:48.164Z,10.30
2023-05-14T07:16:14.745Z,9.80
2023-05-14T07:18:41.359Z,10.10
2023-05-14T07:21:07.921Z,8.70
2023-05-14T07:23:36.125Z,10.40
2023-05-14T07:26:06.450Z,10.00
2023-05-14T07:28:34.139Z,7.60
2023-05-14T07:31:00.884Z,10.70
2023-05-14T07:33:27.509Z,7.20
2023-05-14T07:35:54.151Z,9.70
2023-05-14T07:38:20.903Z,8.60
2023-05-14T07:40:47.578Z,10.60
2023-05-14T07:43:14.103Z,9.30
2023-05-14T07:45:40.687Z,7.40
2023-05-14T07:48:07.451Z,9.00
2023-05-14T07:50:34.360Z,9.50
2023-05-14T07:53:01.111Z,7.10
2023-05-14T07:55:27.656Z,9.30
2023-05-14T07:57:54.558Z,6.80
2023-05-14T08:00:21.549Z,9.60
2023-05-14T08:02:48.795Z,8.70
2023-05-14T08:05:16.109Z,10.50
2023-05-14T08:07:42.781Z,7.10
2023-05-14T08:10:09.683Z,8.20
2023-05-14T08:12:36.208Z,8.10
2023-05-14T08:15:03.040Z,6.90
2023-05-14T08:17:29.767Z,6.50
2023-05-14T08:19:56.336Z,7.70
2023-05-14T08:22:22.772Z,8.10
2023-05-14T08:24:49.617Z,8.40
2023-05-14T08:27:16.578Z,7.40
2023-05-14T08:29:43.046Z,8.30
2023-05-14T08:32:21.992Z,6.90
2023-05-14T08:34:50.107Z,6.60
2023-05-14T08:37:16.642Z,6.00
2023-05-14T08:39:43.218Z,9.10
2023-05-14T08:42:12.275Z,6.60
2023-05-14T08:44:51.802Z,5.70
2023-05-14T08:47:21.153Z,7.30
2023-05-14T08:49:54.441Z,7.20
2023-05-14T08:52:22.289Z,6.00
2023-05-14T08:54:53.073Z,8.90
2023-05-14T08:57:23.215Z,10.10
2023-05-14T08:59:50.695Z,6.90
2023-05-14T09:02:22.235Z,7.00
2023-05-14T09:04:57.097Z,5.90
2023-05-14T09:07:24.306Z,6.10
2023-05-14T09:09:52.147Z,6.80
2023-05-14T09:12:19.571Z,7.10
2023-05-14T09:14:47.596Z,7.10
2023-05-14T09:17:16.131Z,6.00
2023-05-14T09:19:43.680Z,6.00
2023-05-14T09:22:15.002Z,5.30
2023-05-14T09:24:42.408Z,5.90
2023-05-14T09:27:15.240Z,7.90
2023-05-14T09:29:42.924Z,7.10
2023-05-14T09:32:10.282Z,5.10
2023-05-14T09:34:37.506Z,4.90
2023-05-14T09:37:06.052Z,11.20
2023-05-14T09:39:35.544Z,5.00
2023-05-14T09:42:02.457Z,13.50
2023-05-14T09:44:29.281Z,8.70
2023-05-14T09:46:55.993Z,6.60
2023-05-14T09:49:22.666Z,6.30
2023-05-14T09:51:50.083Z,6.60
2023-05-14T09:54:16.977Z,5.80
2023-05-14T09:56:43.961Z,6.20
2023-05-14T09:59:10.641Z,5.10
2023-05-14T10:01:37.901Z,8.90
2023-05-14T10:04:09.321Z,7.50
2023-05-14T10:06:38.068Z,8.50
2023-05-14T10:09:16.337Z,6.10
2023-05-14T10:11:52.651Z,6.90
2023-05-14T10:14:52.976Z,6.60
2023-05-14T10:17:21.569Z,5.20
2023-05-14T10:19:54.244Z,7.10
2023-05-14T10:22:27.168Z,6.10
2023-05-14T10:24:55.662Z,7.60
2023-05-14T10:27:25.583Z,5.80
2023-05-14T10:29:54.182Z,6.60
2023-05-14T10:32:25.279Z,6.80
2023-05-14T10:34:52.586Z,5.30
2023-05-14T10:37:25.305Z,6.70
2023-05-14T10:39:58.801Z,6.80
2023-05-14T10:42:27.234Z,7.50
2023-05-14T10:44:57.956Z,6.40
2023-05-14T10:47:38.180Z,7.50
2023-05-14T10:50:08.860Z,6.90
2023-05-14T10:52:36.287Z,7.20
2023-05-14T10:55:12.695Z,5.20
2023-05-14T10:57:42.058Z,7.10
2023-05-14T11:00:10.077Z,5.20
2023-05-14T11:02:39.058Z,6.20
2023-05-14T11:05:15.042Z,7.90
2023-05-14T11:07:47.779Z,6.10
2023-05-14T11:10:19.377Z,5.90
2023-05-14T11:12:48.737Z,5.40
2023-05-14T11:15:18.313Z,6.70
2023-05-14T11:17:46.387Z,6.50
2023-05-14T11:20:13.859Z,5.90
2023-05-14T11:22:42.598Z,6.00
2023-05-14T11:25:10.662Z,7.30
2023-05-14T11:27:38.529Z,5.80
2023-05-14T11:30:11.566Z,5.10
2023-05-14T11:32:38.246Z,6.80
2023-05-14T11:35:05.444Z,8.40
2023-05-14T11:37:32.125Z,6.20
2023-05-14T11:39:59.868Z,7.60
2023-05-14T11:42:26.523Z,8.80
2023-05-14T11:44:53.499Z,9.00
2023-05-14T11:47:21.403Z,9.80
2023-05-14T11:49:48.969Z,8.30
2023-05-14T11:52:18.585Z,6.10
2023-05-14T11:54:45.798Z,7.40
2023-05-14T11:57:15.613Z,8.70
2023-05-14T11:59:42.946Z,11.00
2023-05-14T12:02:14.509Z,11.10
2023-05-14T12:04:42.312Z,6.30
2023-05-14T12:07:14.054Z,5.70
2023-05-14T12:09:48.443Z,6.00
2023-05-14T12:12:19.215Z,8.00
2023-05-14T12:14:46.216Z,5.50
2023-05-14T12:17:16.819Z,6.70
2023-05-14T12:19:45.101Z,6.80
2023-05-14T12:22:14.834Z,10.50
2023-05-14T12:24:43.393Z,5.60
2023-05-14T12:27:10.247Z,7.70
2023-05-14T12:29:40.702Z,6.10
2023-05-14T12:32:08.905Z,7.60
2023-05-14T12:34:37.490Z,5.90
2023-05-14T12:37:05.930Z,6.90
2023-05-14T12:39:34.210Z,11.30
2023-05-14T12:42:01.632Z,5.90
2023-05-14T12:44:28.484Z,6.70
2023-05-14T12:46:55.643Z,5.70
2023-05-14T12:49:22.284Z,8.00
2023-05-14T12:51:48.801Z,6.50
2023-05-14T12:54:16.944Z,7.00
2023-05-14T12:56:43.479Z,6.00
2023-05-14T12:59:10.127Z,8.30
2023-05-14T13:01:37.721Z,6.60
2023-05-14T13:04:05.121Z,8.30
2023-05-14T13:06:32.143Z,5.30
2023-05-14T13:09:01.185Z,5.40
2023-05-14T13:11:29.677Z,6.20
2023-05-14T13:13:56.199Z,6.60
2023-05-14T13:16:22.873Z,5.50
2023-05-14T13:18:49.525Z,7.60
2023-05-14T13:21:16.130Z,6.00
2023-05-14T13:23:42.991Z,8.00
2023-05-14T13:26:09.610Z,5.10
2023-05-14T13:28:36.160Z,8.70
2023-05-14T13:31:06.339Z,6.00
2023-05-14T13:33:36.678Z,6.10
2023-05-14T13:36:03.965Z,6.40
2023-05-14T13:38:30.613Z,5.50
2023-05-14T13:41:01.265Z,6.00
2023-05-14T13:43:32.186Z,6.40
2023-05-14T13:46:00.450Z,5.90
2023-05-14T13:48:27.332Z,8.40
2023-05-14T13:50:54.419Z,6.00
2023-05-14T13:53:22.830Z,5.40
2023-05-14T13:55:50.188Z,7.20
2023-05-14T13:58:16.858Z,5.70
2023-05-14T14:00:43.380Z,6.30
2023-05-14T14:03:10.022Z,8.50
2023-05-14T14:05:37.263Z,5.90
2023-05-14T14:08:13.077Z,5.60
2023-05-14T14:10:49.257Z,6.60
2023-05-14T14:13:15.815Z,7.50
2023-05-14T14:15:43.164Z,5.20
2023-05-14T14:18:09.949Z,8.40
2023-05-14T14:20:36.551Z,5.60
2023-05-14T14:23:03.291Z,6.90
2023-05-14T14:25:30.074Z,7.20
2023-05-14T14:27:56.559Z,5.40
2023-05-14T14:30:23.128Z,7.00
2023-05-14T14:32:50.265Z,6.50
2023-05-14T14:35:18.526Z,9.00
2023-05-14T14:37:48.704Z,7.30
2023-05-14T14:40:16.240Z,5.20
2023-05-14T14:42:43.360Z,6.60
2023-05-14T14:45:10.791Z,8.50
2023-05-14T14:47:37.501Z,6.30
2023-05-14T14:50:04.930Z,5.00
2023-05-14T14:52:31.518Z,5.30
2023-05-14T14:54:58.260Z,4.60
2023-05-14T14:57:26.158Z,6.50
2023-05-14T14:59:52.836Z,6.40
2023-05-14T15:02:19.540Z,6.80
2023-05-14T15:04:46.167Z,6.30
2023-05-14T15:07:13.122Z,6.50
2023-05-14T15:09:39.699Z,7.10
2023-05-14T15:12:08.197Z,5.60
2023-05-14T15:14:34.740Z,4.40
2023-05-14T15:17:01.478Z,6.30
2023-05-14T15:19:28.864Z,7.40
2023-05-14T15:21:55.421Z,7.60
2023-05-14T15:24:23.540Z,6.00
2023-05-14T15:26:52.028Z,7.50
2023-05-14T15:29:20.253Z,5.80
2023-05-14T15:31:47.680Z,7.70
2023-05-14T15:34:14.567Z,5.10
2023-05-14T15:36:41.425Z,5.30
2023-05-14T15:39:09.749Z,5.90
2023-05-14T15:41:36.741Z,5.60
2023-05-14T15:44:03.504Z,7.80
2023-05-14T15:46:30.479Z,5.80
2023-05-14T15:48:57.415Z,6.00
2023-05-14T15:51:24.103Z,6.50
2023-05-14T15:53:53.482Z,5.90
2023-05-14T15:56:22.174Z,8.20
2023-05-14T15:58:49.204Z,6.30
2023-05-14T16:01:16.109Z,8.90
2023-05-14T16:03:42.786Z,6.00
2023-05-14T16:06:09.720Z,6.30
2023-05-14T16:08:36.685Z,6.00
2023-05-14T16:11:03.394Z,7.70
2023-05-14T16:13:30.268Z,3.80
2023-05-14T16:15:58.907Z,6.50
2023-05-14T16:18:25.728Z,5.20
2023-05-14T16:20:52.966Z,5.50
2023-05-14T16:23:19.654Z,9.40
2023-05-14T16:25:46.239Z,5.00
2023-05-14T16:28:13.140Z,4.80
2023-05-14T16:30:39.773Z,6.20
2023-05-14T16:33:06.415Z,5.00
2023-05-14T16:35:33.282Z,7.70
2023-05-14T16:38:01.080Z,6.20
2023-05-14T16:40:27.677Z,6.90
2023-05-14T16:42:54.133Z,6.80
2023-05-14T16:45:20.750Z,5.70
2023-05-14T16:47:47.306Z,10.60
2023-05-14T16:50:13.855Z,5.40
2023-05-14T16:52:40.612Z,5.00
2023-05-14T16:55:07.600Z,5.40
2023-05-14T16:57:34.567Z,6.10
2023-05-14T17:00:04.410Z,5.70
2023-05-14T17:02:31.996Z,6.30
2023-05-14T17:04:58.903Z,5.50
2023-05-14T17:07:25.830Z,6.70
2023-05-14T17:09:52.489Z,5.10
2023-05-14T17:12:18.964Z,7.40
2023-05-14T17:14:45.610Z,7.80
2023-05-14T17:17:12.086Z,7.60
2023-05-14T17:19:38.578Z,5.70
2023-05-14T17:22:05.481Z,7.40
2023-05-14T17:24:32.280Z,7.60
2023-05-14T17:26:58.943Z,5.60
2023-05-14T17:29:25.774Z,6.10
2023-05-14T17:31:52.547Z,6.00
2023-05-14T17:34:19.223Z,5.60
2023-05-14T17:36:45.898Z,6.60
2023-05-14T17:39:12.521Z,9.20
2023-05-14T17:41:41.111Z,5.10
2023-05-14T17:44:09.484Z,7.90
2023-05-14T17:46:37.494Z,5.80
2023-05-14T17:49:04.239Z,5.60
2023-05-14T17:51:30.974Z,6.60
2023-05-14T17:53:58.515Z,6.30
2023-05-14T17:56:25.394Z,5.30
2023-05-14T17:58:55.181Z,6.40
2023-05-14T18:01:21.733Z,5.80
2023-05-14T18:03:48.327Z,8.40
2023-05-14T18:06:16.151Z,6.40
2023-05-14T18:08:42.768Z,6.10
2023-05-14T18:11:09.276Z,7.90
2023-05-14T18:13:35.832Z,6.50
2023-05-14T18:16:03.449Z,5.40
2023-05-14T18:18:30.758Z,7.10
2023-05-14T18:20:57.516Z,6.80
2023-05-14T18:23:24.041Z,5.80
2023-05-14T18:25:50.616Z,6.70
2023-05-14T18:28:18.323Z,5.90
2023-05-14T18:30:44.934Z,7.90
2023-05-14T18:33:11.526Z,7.70
2023-05-14T18:35:38.224Z,5.90
2023-05-14T18:38:07.397Z,10.20
2023-05-14T18:40:34.446Z,8.90
2023-05-14T18:43:01.183Z,9.30
2023-05-14T18:45:27.952Z,6.70
2023-05-14T18:47:54.925Z,6.70
2023-05-14T18:50:21.569Z,7.80
2023-05-14T18:52:48.061Z,8.60
2023-05-14T18:55:14.738Z,10.00
2023-05-14T18:57:41.280Z,13.70
2023-05-14T19:00:08.341Z,12.80
2023-05-14T19:02:35.470Z,8.60
2023-05-14T19:05:02.396Z,8.90
2023-05-14T19:07:30.343Z,8.10
2023-05-14T19:09:56.784Z,9.20
2023-05-14T19:12:23.471Z,7.80
2023-05-14T19:14:49.981Z,8.30
2023-05-14T19:17:18.348Z,6.10
2023-05-14T19:19:45.930Z,6.90
2023-05-14T19:22:12.426Z,5.80
2023-05-14T19:24:39.572Z,6.70
2023-05-14T19:27:06.310Z,7.40
2023-05-14T19:29:33.264Z,5.20
2023-05-14T19:31:59.840Z,7.30
2023-05-14T19:34:26.591Z,7.10
2023-05-14T19:36:53.182Z,7.10
2023-05-14T19:39:19.747Z,7.20
2023-05-14T19:41:46.561Z,7.70
2023-05-14T19:44:13.096Z,6.40
2023-05-14T19:46:40.219Z,7.10
2023-05-14T19:49:06.794Z,5.70
2023-05-14T19:51:33.289Z,7.10
2023-05-14T19:53:59.844Z,7.90
2023-05-14T19:56:29.065Z,9.40
2023-05-14T19:58:55.720Z,6.40
2023-05-14T20:01:22.228Z,6.50
2023-05-14T20:03:48.930Z,8.90
2023-05-14T20:06:16.830Z,7.60
2023-05-14T20:08:44.778Z,9.10
2023-05-14T20:11:11.429Z,7.00
2023-05-14T20:13:37.910Z,6.50
2023-05-14T20:16:05.179Z,5.60
2023-05-14T20:18:32.146Z,6.70
2023-05-14T20:20:58.749Z,7.10
2023-05-14T20:23:25.360Z,8.40
2023-05-14T20:25:52.473Z,9.60
2023-05-14T20:28:19.002Z,6.70
2023-05-14T20:30:45.667Z,8.50
2023-05-14T20:33:13.186Z,7.90
2023-05-14T20:35:43.034Z,7.60
2023-05-14T20:38:12.104Z,8.00
2023-05-14T20:40:38.972Z,6.40
2023-05-14T20:43:05.696Z,6.40
2023-05-14T20:45:32.232Z,10.60
2023-05-14T20:47:58.880Z,6.20
2023-05-14T20:50:27.224Z,7.00
2023-05-14T20:52:54.656Z,7.20
2023-05-14T20:55:21.273Z,8.50
2023-05-14T20:57:49.048Z,7.60
2023-05-14T21:00:15.938Z,6.70
2023-05-14T21:02:42.613Z,10.30
2023-05-14T21:05:09.247Z,7.20
2023-05-14T21:07:36.730Z,9.00
2023-05-14T21:10:03.813Z,9.90
2023-05-14T21:12:30.367Z,7.80
2023-05-14T21:14:57.118Z,7.30
2023-05-14T21:17:24.686Z,12.00
2023-05-14T21:19:51.237Z,8.60
2023-05-14T21:22:17.836Z,11.30
2023-05-14T21:24:44.674Z,13.40
2023-05-14T21:27:11.252Z,10.60
2023-05-14T21:29:39.026Z,14.80
2023-05-14T21:32:05.967Z,12.10
2023-05-14T21:34:32.766Z,14.10
2023-05-14T21:36:59.290Z,12.40
2023-05-14T21:39:26.036Z,15.50
2023-05-14T21:41:52.692Z,12.70
2023-05-14T21:44:21.338Z,13.40
2023-05-14T21:46:48.473Z,12.00
2023-05-14T21:49:15.085Z,12.10
2023-05-14T21:51:42.285Z,13.80
2023-05-14T21:54:09.136Z,17.50
2023-05-14T21:56:36.697Z,12.40
2023-05-14T21:59:03.274Z,12.70
2023-05-14T22:01:30.512Z,13.10
2023-05-14T22:03:57.991Z,13.90
2023-05-14T22:06:24.715Z,14.20
2023-05-14T22:08:51.368Z,13.10
2023-05-14T22:11:17.993Z,11.80
2023-05-14T22:13:44.515Z,9.80
2023-05-14T22:16:13.354Z,9.50
2023-05-14T22:18:41.004Z,7.50
2023-05-14T22:21:07.722Z,8.50
2023-05-14T22:23:34.404Z,9.90
2023-05-14T22:26:00.940Z,10.40
2023-05-14T22:28:27.524Z,6.70
2023-05-14T22:30:55.812Z,7.70
2023-05-14T22:33:22.464Z,9.40
2023-05-14T22:35:48.927Z,7.90
2023-05-14T22:38:15.402Z,11.30
2023-05-14T22:40:42.054Z,8.10
2023-05-14T22:43:08.747Z,6.90
2023-05-14T22:45:35.407Z,7.90
2023-05-14T22:48:02.150Z,10.40
2023-05-14T22:50:28.655Z,7.50
2023-05-14T22:52:55.180Z,7.30
2023-05-14T22:55:21.946Z,6.80
2023-05-14T22:57:48.513Z,7.40
2023-05-14T23:00:15.601Z,7.60
2023-05-14T23:02:42.247Z,7.50
2023-05-14T23:05:09.109Z,7.40
2023-05-14T23:07:35.668Z,7.20
2023-05-14T23:10:02.229Z,9.00
2023-05-14T23:12:28.863Z,8.50
2023-05-14T23:14:55.409Z,7.10
2023-05-14T23:17:22.198Z,9.40
2023-05-14T23:19:48.771Z,7.20
2023-05-14T23:22:15.621Z,7.00
2023-05-14T23:24:42.209Z,7.80
2023-05-14T23:27:08.868Z,7.60
2023-05-14T23:29:35.476Z,6.50
2023-05-14T23:32:02.170Z,8.50
2023-05-14T23:34:28.753Z,9.30
2023-05-14T23:36:55.510Z,8.60
2023-05-14T23:39:22.126Z,6.40
2023-05-14T23:41:48.596Z,8.00
2023-05-14T23:44:15.418Z,7.90
2023-05-14T23:46:42.072Z,9.70
2023-05-14T23:49:08.652Z,8.50
2023-05-14T23:51:36.314Z,8.90
2023-05-14T23:54:03.217Z,9.20
2023-05-14T23:56:29.794Z,7.00
2023-05-14T23:58:56.447Z,7.30
